Time;durP1;ratioP1;P1;durP2;ratioP2;P2;SDS_P1;SDS_P2;PMS_P1;PMS_P2;Temp;Humidity;BMP_temperature;BMP_pressure;BME280_temperature;BME280_humidity;BME280_pressure;Samples;Min_cycle;Max_cycle;Signal;HPM_P1;HPM_P2
2021/12/28 00:01:36;;;;;;;24.92;4.97;;;;;;;8.77;79.89;96991.66;4211004;28;20251;-56
2021/12/28 00:03:42;;;;;;;19.65;4.45;;;;;;;8.81;79.23;97003.66;4204061;28;20235;-56
2021/12/28 00:05:44;;;;;;;18.17;5.43;;;;;;;8.85;79.39;97000.09;4209621;28;20199;-55
2021/12/28 00:07:45;;;;;;;20.75;5.05;;;;;;;8.74;79.85;97003.13;4209372;28;20242;-56
2021/12/28 00:09:47;;;;;;;24.00;5.45;;;;;;;8.77;79.50;97005.28;4213007;28;20626;-56
2021/12/28 00:11:48;;;;;;;22.98;5.40;;;;;;;8.75;79.87;96993.84;4207426;28;20237;-55
2021/12/28 00:13:52;;;;;;;13.40;4.68;;;;;;;8.82;79.66;96997.09;4212371;28;20309;-56
2021/12/28 00:18:02;;;;;;;22.85;6.85;;;;;;;8.77;79.66;96983.47;4209933;28;20241;-56
2021/12/28 00:20:04;;;;;;;25.92;5.32;;;;;;;8.76;79.44;96990.03;4207111;28;20259;-54
2021/12/28 00:22:06;;;;;;;20.40;5.22;;;;;;;8.77;79.71;96986.19;4208774;28;20921;-57
2021/12/28 00:24:08;;;;;;;20.30;5.90;;;;;;;8.73;79.69;96990.56;4211635;28;20199;-55
2021/12/28 00:26:12;;;;;;;27.23;5.28;;;;;;;8.75;79.53;96988.41;4211444;28;20224;-56
2021/12/28 00:28:15;;;;;;;13.57;4.28;;;;;;;8.76;79.53;96996.28;4214324;28;20748;-55
2021/12/28 00:30:17;;;;;;;24.58;5.55;;;;;;;8.76;79.23;96984.56;4212220;28;20206;-55
2021/12/28 00:32:18;;;;;;;13.52;4.30;;;;;;;8.75;79.19;96982.94;4211017;28;20252;-54
2021/12/28 00:34:20;;;;;;;29.77;6.90;;;;;;;8.77;79.53;96983.47;4192889;28;20231;-57
2021/12/28 00:36:22;;;;;;;20.17;6.55;;;;;;;8.70;79.35;96980.22;4208005;28;20234;-55
2021/12/28 00:38:26;;;;;;;30.83;5.28;;;;;;;8.72;79.09;96975.28;4209918;28;20230;-56
2021/12/28 00:40:29;;;;;;;22.38;5.32;;;;;;;8.80;78.96;96975.56;4209838;28;20241;-55
2021/12/28 00:42:30;;;;;;;23.00;3.53;;;;;;;8.82;79.05;96967.09;4209818;28;20254;-55
2021/12/28 00:44:32;;;;;;;23.00;5.20;;;;;;;8.81;78.93;96974.47;4207403;28;20206;-56
2021/12/28 00:46:34;;;;;;;18.83;6.03;;;;;;;8.83;78.54;96968.75;4210803;28;20625;-57
2021/12/28 00:48:36;;;;;;;27.60;6.70;;;;;;;8.79;79.09;96970.38;4201781;28;20717;-54
2021/12/28 00:50:38;;;;;;;32.63;5.78;;;;;;;8.82;79.22;96967.91;4207420;28;20253;-56
2021/12/28 00:52:40;;;;;;;17.30;5.68;;;;;;;8.77;78.92;96969.84;4210178;28;20517;-54
2021/12/28 00:54:42;;;;;;;20.50;4.68;;;;;;;8.75;79.42;96961.94;4210324;28;20691;-56
2021/12/28 00:56:43;;;;;;;9.82;5.28;;;;;;;8.77;78.63;96964.38;4196601;28;20260;-55
2021/12/28 00:58:45;;;;;;;15.98;4.72;;;;;;;8.78;79.31;96968.75;4208418;28;20234;-56
2021/12/28 01:00:47;;;;;;;22.98;4.70;;;;;;;8.86;78.83;96968.16;4205208;28;20246;-57
2021/12/28 01:02:49;;;;;;;16.83;5.30;;;;;;;8.83;78.70;96963.28;4207347;28;20253;-57
2021/12/28 01:04:51;;;;;;;18.83;4.22;;;;;;;8.82;78.63;96956.19;4210551;28;20202;-56
2021/12/28 01:06:53;;;;;;;9.02;5.88;;;;;;;8.85;78.42;96955.63;4208911;28;20202;-55
2021/12/28 01:08:55;;;;;;;19.55;4.65;;;;;;;8.83;78.58;96957.81;4208908;28;20295;-57
2021/12/28 01:10:58;;;;;;;13.95;4.30;;;;;;;8.85;78.52;96944.72;4210134;28;20557;-55
2021/12/28 01:12:59;;;;;;;14.52;3.33;;;;;;;8.86;77.86;96946.34;4209941;28;20584;-56
2021/12/28 01:15:06;;;;;;;21.52;4.43;;;;;;;8.87;78.05;96943.34;4207380;28;20730;-55
2021/12/28 01:17:08;;;;;;;19.33;4.72;;;;;;;8.94;77.96;96937.63;4210069;28;20583;-55
2021/12/28 01:19:09;;;;;;;25.77;3.70;;;;;;;8.87;77.76;96948.81;4210113;28;20212;-56
2021/12/28 01:21:11;;;;;;;18.90;4.18;;;;;;;8.88;77.46;96944.19;4210588;28;20207;-55
2021/12/28 01:23:14;;;;;;;11.43;3.63;;;;;;;8.86;78.05;96941.72;4208834;28;20213;-55
2021/12/28 01:25:17;;;;;;;19.30;3.83;;;;;;;8.91;77.67;96943.63;4210885;28;20570;-54
2021/12/28 01:27:19;;;;;;;14.13;3.83;;;;;;;8.84;77.53;96943.09;4206704;28;20230;-55
2021/12/28 01:29:20;;;;;;;15.80;4.18;;;;;;;8.88;77.58;96944.19;4209185;28;20625;-56
2021/12/28 01:31:22;;;;;;;17.63;3.38;;;;;;;8.86;77.21;96940.91;4211739;28;20199;-57
2021/12/28 01:33:24;;;;;;;12.18;3.15;;;;;;;8.84;77.43;96933.00;4208404;28;20811;-55
2021/12/28 01:35:28;;;;;;;7.93;2.83;;;;;;;8.80;77.56;96936.56;4209108;28;20210;-55
2021/12/28 01:37:29;;;;;;;16.40;3.58;;;;;;;8.86;77.52;96940.91;4208908;28;20226;-55
2021/12/28 01:39:31;;;;;;;15.30;3.92;;;;;;;8.94;77.27;96932.16;4207345;28;20213;-57
2021/12/28 01:41:33;;;;;;;12.07;3.33;;;;;;;8.92;77.37;96928.88;4208799;28;20225;-54
2021/12/28 01:43:37;;;;;;;14.63;4.20;;;;;;;8.84;77.45;96924.00;4209795;28;20202;-55
2021/12/28 01:45:43;;;;;;;13.60;3.50;;;;;;;8.92;77.29;96932.44;4208491;28;20645;-57
2021/12/28 01:47:45;;;;;;;8.57;3.30;;;;;;;8.84;77.59;96924.84;4208826;28;20265;-57
2021/12/28 01:49:47;;;;;;;14.43;2.47;;;;;;;8.91;77.41;96916.34;4209605;28;20702;-54
2021/12/28 01:51:49;;;;;;;10.10;3.85;;;;;;;8.80;77.18;96914.72;4190047;28;20206;-54
2021/12/28 01:53:55;;;;;;;15.75;4.50;;;;;;;8.77;77.99;96909.84;4207383;28;20210;-54
2021/12/28 01:56:00;;;;;;;15.82;3.55;;;;;;;8.77;78.10;96904.41;4208931;28;20222;-56
2021/12/28 01:58:03;;;;;;;15.48;4.13;;;;;;;8.84;77.91;96902.19;4206813;28;20265;-55
2021/12/28 02:00:06;;;;;;;17.52;4.10;;;;;;;8.83;77.55;96903.28;4205033;28;20206;-56
2021/12/28 02:02:07;;;;;;;17.58;3.42;;;;;;;8.83;77.36;96897.84;4207994;28;20321;-56
2021/12/28 02:04:28;;;;;;;13.48;4.25;;;;;;;8.83;77.36;96897.84;4208767;28;20198;-55
2021/12/28 02:06:30;;;;;;;11.93;3.88;;;;;;;8.83;77.43;96897.84;4210675;28;20572;-58
2021/12/28 02:08:32;;;;;;;11.65;2.72;;;;;;;8.83;77.74;96895.09;4213785;28;20237;-54
2021/12/28 02:10:35;;;;;;;19.88;3.05;;;;;;;8.78;77.12;96878.75;4212896;28;20244;-55
2021/12/28 02:12:37;;;;;;;11.52;3.35;;;;;;;8.81;77.34;96883.66;4213262;28;20210;-55
2021/12/28 02:14:44;;;;;;;13.60;3.13;;;;;;;8.77;77.85;96890.75;4211550;28;20676;-55
2021/12/28 02:16:46;;;;;;;7.18;3.25;;;;;;;8.81;77.58;96878.22;4228031;28;20201;-54
2021/12/28 02:18:47;;;;;;;20.80;3.72;;;;;;;8.81;76.90;96884.47;4207336;28;20237;-56
2021/12/28 02:20:51;;;;;;;7.07;2.70;;;;;;;8.82;77.61;96874.38;4212585;28;20207;-54
2021/12/28 02:22:52;;;;;;;15.55;3.22;;;;;;;8.73;77.58;96867.84;4212943;28;20198;-55
2021/12/28 02:24:54;;;;;;;19.63;3.83;;;;;;;8.77;77.24;96866.22;4212497;28;20615;-57
2021/12/28 02:26:56;;;;;;;8.50;3.22;;;;;;;8.77;77.51;96868.94;4212827;28;20616;-56
2021/12/28 02:28:58;;;;;;;7.55;2.92;;;;;;;8.78;77.14;96862.41;4214835;28;20201;-55
2021/12/28 02:31:00;;;;;;;11.48;3.60;;;;;;;8.84;77.28;96861.28;4213971;28;20229;-55
2021/12/28 02:33:02;;;;;;;7.65;3.85;;;;;;;8.82;77.17;96864.28;4215497;28;20220;-54
2021/12/28 02:35:17;;;;;;;9.63;3.05;;;;;;;8.83;77.27;96859.66;4213923;28;20703;-55
2021/12/28 02:37:18;;;;;;;9.25;2.47;;;;;;;8.77;77.61;96855.31;4213141;28;20222;-55
2021/12/28 02:39:20;;;;;;;15.88;3.80;;;;;;;8.77;77.49;96860.78;4211065;28;20237;-56
2021/12/28 02:41:22;;;;;;;11.38;3.50;;;;;;;8.75;77.78;96849.34;4212622;28;20210;-55
2021/12/28 02:43:24;;;;;;;9.07;2.55;;;;;;;8.74;77.63;96848.50;4210906;28;20206;-55
2021/12/28 02:45:29;;;;;;;11.80;3.85;;;;;;;8.83;77.38;96848.75;4222204;28;20833;-55
2021/12/28 02:47:32;;;;;;;15.18;3.58;;;;;;;8.75;77.82;96846.59;4225763;28;20245;-57
2021/12/28 02:49:36;;;;;;;11.10;2.40;;;;;;;8.73;78.14;96844.16;4195874;28;20588;-55
2021/12/28 02:51:39;;;;;;;7.93;2.47;;;;;;;8.78;77.56;96837.84;4211404;28;20203;-55
2021/12/28 02:53:43;;;;;;;14.32;3.25;;;;;;;8.70;78.08;96833.78;4211646;28;20211;-55
2021/12/28 02:55:46;;;;;;;7.60;2.28;;;;;;;8.67;78.43;96828.91;4211385;28;20289;-54
2021/12/28 02:57:50;;;;;;;13.48;3.10;;;;;;;8.60;78.76;96825.66;4211673;28;20234;-57
2021/12/28 02:59:52;;;;;;;16.80;3.97;;;;;;;8.58;79.23;96819.69;4213675;28;20199;-55
2021/12/28 03:01:54;;;;;;;9.05;3.63;;;;;;;8.57;79.34;96822.69;4208070;28;20217;-56
2021/12/28 03:04:03;;;;;;;7.90;3.00;;;;;;;8.55;79.35;96813.97;4214623;28;20763;-55
2021/12/28 03:06:07;;;;;;;7.72;2.58;;;;;;;8.57;79.50;96817.22;4210551;28;20202;-55
2021/12/28 03:08:09;;;;;;;8.30;2.40;;;;;;;8.49;79.92;96809.63;4211776;28;20218;-56
2021/12/28 03:10:11;;;;;;;11.68;4.43;;;;;;;8.47;80.37;96811.81;4208767;28;20206;-55
2021/12/28 03:12:13;;;;;;;11.48;4.07;;;;;;;8.39;80.55;96809.66;4211799;28;20688;-55
2021/12/28 03:14:14;;;;;;;16.92;3.42;;;;;;;8.36;80.55;96808.28;4209499;28;20261;-55
2021/12/28 03:16:17;;;;;;;10.13;2.92;;;;;;;8.31;80.82;96808.34;4210248;28;20281;-54
2021/12/28 03:18:19;;;;;;;6.45;3.13;;;;;;;8.28;81.09;96806.16;4213576;28;20653;-56
2021/12/28 03:20:21;;;;;;;19.27;4.40;;;;;;;8.27;81.12;96800.97;4215680;28;20214;-55
2021/12/28 03:22:23;;;;;;;6.57;2.92;;;;;;;8.24;81.47;96802.38;4211759;28;20278;-57
2021/12/28 03:24:26;;;;;;;9.88;2.83;;;;;;;8.22;81.30;96793.63;4203998;28;20207;-55
2021/12/28 03:26:27;;;;;;;12.65;3.65;;;;;;;8.15;81.88;96803.97;4211316;28;20281;-56
2021/12/28 03:28:32;;;;;;;7.90;2.83;;;;;;;8.17;81.43;96790.09;4195437;28;20231;-55
2021/12/28 03:30:37;;;;;;;14.50;2.58;;;;;;;8.15;81.72;96787.63;4209973;28;20206;-56
2021/12/28 03:32:39;;;;;;;12.10;2.72;;;;;;;8.13;81.58;96783.53;4210657;28;20203;-56
2021/12/28 03:34:40;;;;;;;10.85;2.92;;;;;;;8.12;81.44;96771.84;4212379;28;20268;-56
2021/12/28 03:36:42;;;;;;;7.85;3.35;;;;;;;8.15;81.33;96771.28;4209282;28;20652;-56
2021/12/28 03:38:45;;;;;;;8.60;2.90;;;;;;;8.16;81.56;96767.47;4210604;28;20421;-55
2021/12/28 03:40:47;;;;;;;10.13;3.05;;;;;;;8.11;81.63;96766.69;4210192;28;20195;-54
2021/12/28 03:42:49;;;;;;;9.45;3.08;;;;;;;8.14;81.99;96763.38;4210994;28;20214;-54
2021/12/28 03:44:51;;;;;;;8.02;2.92;;;;;;;8.09;81.99;96760.69;4210367;28;20207;-55
2021/12/28 03:46:53;;;;;;;7.70;3.05;;;;;;;8.11;81.62;96753.06;4210351;28;20634;-54
2021/12/28 03:48:55;;;;;;;16.90;2.95;;;;;;;8.12;81.31;96754.69;4210979;28;20695;-55
2021/12/28 03:50:57;;;;;;;4.57;2.67;;;;;;;8.12;81.61;96749.22;4211008;28;20713;-56
2021/12/28 03:53:00;;;;;;;8.68;2.88;;;;;;;8.13;81.17;96748.13;4209138;28;20235;-55
2021/12/28 03:55:03;;;;;;;5.38;2.53;;;;;;;8.14;81.13;96747.88;4211925;28;20245;-55
2021/12/28 03:57:05;;;;;;;10.63;3.13;;;;;;;8.16;80.85;96736.72;4209785;28;20219;-54
2021/12/28 03:59:07;;;;;;;6.60;2.33;;;;;;;8.18;81.57;96737.22;4210907;28;20195;-55
2021/12/28 04:01:11;;;;;;;7.43;2.90;;;;;;;8.14;81.30;96736.16;4206866;28;20194;-55
2021/12/28 04:03:14;;;;;;;6.55;1.92;;;;;;;8.14;81.15;96733.41;4208706;28;20206;-57
2021/12/28 04:05:16;;;;;;;5.88;1.98;;;;;;;8.17;81.01;96738.34;4205938;28;20225;-58
2021/12/28 04:07:20;;;;;;;6.22;2.80;;;;;;;8.14;81.33;96726.06;4207847;28;20231;-57
2021/12/28 04:09:45;;;;;;;10.90;2.20;;;;;;;8.13;81.00;96726.34;4212278;28;20209;-59
2021/12/28 04:11:44;;;;;;;5.72;2.10;;;;;;;8.18;81.13;96723.59;4211260;28;20219;-56
2021/12/28 04:13:47;;;;;;;7.07;2.38;;;;;;;8.16;81.34;96723.09;4211282;28;20969;-57
2021/12/28 04:15:49;;;;;;;3.88;2.05;;;;;;;8.27;80.19;96717.34;4210682;28;20684;-56
2021/12/28 04:17:51;;;;;;;4.53;1.70;;;;;;;8.29;79.86;96723.31;4208075;28;20255;-56
2021/12/28 04:19:53;;;;;;;3.85;1.50;;;;;;;8.26;79.68;96713.00;4211102;28;20245;-55
2021/12/28 04:21:55;;;;;;;2.90;1.60;;;;;;;8.29;80.20;96728.75;4213282;28;20195;-55
2021/12/28 04:23:57;;;;;;;3.92;1.63;;;;;;;8.29;80.47;96717.06;4210943;28;20195;-59
2021/12/28 04:25:59;;;;;;;5.15;1.77;;;;;;;8.28;80.33;96718.16;4211788;28;20207;-58
2021/12/28 04:28:00;;;;;;;4.00;1.20;;;;;;;8.26;80.41;96723.06;4211606;28;20234;-56
2021/12/28 04:30:06;;;;;;;3.72;1.45;;;;;;;8.29;80.46;96717.88;4211714;28;20205;-58
2021/12/28 04:32:08;;;;;;;3.15;1.60;;;;;;;8.25;80.37;96726.88;4212790;28;20211;-57
2021/12/28 04:34:10;;;;;;;7.13;1.90;;;;;;;8.23;80.63;96718.19;4211208;28;20194;-57
2021/12/28 04:36:14;;;;;;;4.75;1.42;;;;;;;8.27;80.28;96713.78;4211399;28;20218;-56
2021/12/28 04:38:16;;;;;;;2.83;1.55;;;;;;;8.28;80.41;96715.44;4210579;28;20607;-56
2021/12/28 04:40:18;;;;;;;5.35;1.95;;;;;;;8.24;80.11;96706.19;4211685;28;20207;-55
2021/12/28 04:42:19;;;;;;;6.07;1.70;;;;;;;8.17;80.71;96700.19;4210261;28;20202;-57
2021/12/28 04:44:24;;;;;;;2.72;1.30;;;;;;;8.18;80.25;96710.81;4209770;28;20252;-56
2021/12/28 04:46:27;;;;;;;3.17;1.45;;;;;;;8.20;80.74;96707.81;4205936;28;20568;-55
2021/12/28 04:48:29;;;;;;;4.55;2.10;;;;;;;8.16;80.53;96701.28;4210565;28;20257;-55
2021/12/28 04:50:37;;;;;;;6.68;2.17;;;;;;;8.26;80.28;96696.66;4193226;28;20223;-56
2021/12/28 04:52:40;;;;;;;3.42;1.08;;;;;;;8.17;80.78;96708.38;4208069;28;20206;-57
2021/12/28 04:54:42;;;;;;;4.88;1.88;;;;;;;8.20;80.21;96707.81;4206961;28;20207;-55
2021/12/28 04:56:46;;;;;;;3.47;2.13;;;;;;;8.16;80.77;96698.56;4206119;28;20218;-54
2021/12/28 04:58:47;;;;;;;4.18;1.88;;;;;;;8.12;80.70;96700.22;4208936;28;20498;-55
2021/12/28 05:00:50;;;;;;;3.40;1.90;;;;;;;8.20;80.22;96696.94;4208721;28;20226;-56
2021/12/28 05:02:52;;;;;;;1.88;1.30;;;;;;;8.18;80.69;96688.19;4206698;28;20669;-55
2021/12/28 05:04:53;;;;;;;3.70;1.50;;;;;;;8.12;80.32;96684.69;4210723;28;20203;-56
2021/12/28 05:06:55;;;;;;;4.35;1.35;;;;;;;8.16;80.93;96695.84;4205994;28;20226;-59
2021/12/28 05:08:57;;;;;;;2.92;1.45;;;;;;;8.15;80.51;96678.69;4211402;28;20838;-57
2021/12/28 05:10:59;;;;;;;4.22;1.55;;;;;;;8.11;80.31;96677.63;4192523;28;20203;-55
2021/12/28 05:13:01;;;;;;;4.88;1.30;;;;;;;8.15;81.01;96672.44;4210405;28;20211;-56
2021/12/28 05:15:04;;;;;;;3.42;1.15;;;;;;;8.10;80.39;96675.16;4209066;28;20215;-55
2021/12/28 05:17:06;;;;;;;2.55;1.35;;;;;;;8.15;80.41;96670.50;4210753;28;20219;-55
2021/12/28 05:19:07;;;;;;;4.38;1.50;;;;;;;8.06;81.40;96665.91;4213656;28;20198;-55
2021/12/28 05:21:09;;;;;;;3.92;1.50;;;;;;;8.09;80.30;96657.19;4216031;28;20198;-57
2021/12/28 05:23:11;;;;;;;1.80;1.50;;;;;;;8.11;80.25;96644.09;4193027;28;20235;-56
2021/12/28 05:25:13;;;;;;;2.17;1.75;;;;;;;8.02;80.50;96652.03;4212249;28;20203;-56
2021/12/28 05:27:15;;;;;;;2.88;1.40;;;;;;;7.99;80.81;96651.78;4207588;28;20222;-56
2021/12/28 05:29:16;;;;;;;2.72;1.55;;;;;;;7.98;81.25;96647.44;4210212;28;20234;-57
2021/12/28 05:31:19;;;;;;;5.07;1.30;;;;;;;7.96;81.31;96652.34;4206355;28;20278;-57
2021/12/28 05:33:21;;;;;;;2.60;1.15;;;;;;;7.99;81.26;96651.78;4208517;28;20611;-56
2021/12/28 05:35:23;;;;;;;3.80;1.48;;;;;;;7.99;81.01;96635.44;4207320;28;20905;-58
2021/12/28 05:37:25;;;;;;;1.90;1.23;;;;;;;8.10;80.75;96653.38;4208517;28;20229;-55
2021/12/28 05:39:26;;;;;;;3.33;1.48;;;;;;;7.99;81.33;96646.34;4210755;28;20210;-57
2021/12/28 05:41:28;;;;;;;4.28;1.90;;;;;;;7.96;81.25;96652.34;4210527;28;20210;-55
2021/12/28 05:43:30;;;;;;;1.58;1.17;;;;;;;8.03;81.38;96648.22;4208726;28;20232;-56
2021/12/28 05:45:32;;;;;;;4.80;1.85;;;;;;;8.04;81.85;96638.16;4206316;28;20195;-58
2021/12/28 05:47:34;;;;;;;1.13;1.02;;;;;;;8.00;80.93;96642.53;4208724;28;20222;-57
2021/12/28 05:49:36;;;;;;;2.72;1.30;;;;;;;7.98;81.49;96642.00;4209438;28;20206;-58
2021/12/28 05:51:37;;;;;;;1.38;1.13;;;;;;;7.92;81.78;96640.38;4208838;28;20226;-58
2021/12/28 05:53:39;;;;;;;2.78;1.40;;;;;;;7.88;81.88;96640.13;4191244;28;20327;-59
2021/12/28 05:55:41;;;;;;;4.18;1.48;;;;;;;7.84;82.51;96635.53;4207746;28;20289;-55
2021/12/28 05:57:42;;;;;;;2.00;1.20;;;;;;;7.87;81.81;96630.34;4208801;28;20227;-55
2021/12/28 05:59:44;;;;;;;1.40;1.30;;;;;;;7.95;82.15;96637.13;4208081;28;20202;-56
2021/12/28 06:01:46;;;;;;;4.65;1.70;;;;;;;7.91;82.13;96628.69;4207796;28;20203;-55
2021/12/28 06:03:48;;;;;;;2.35;1.63;;;;;;;7.91;82.55;96623.25;4205286;28;20262;-58
2021/12/28 06:05:50;;;;;;;2.42;1.25;;;;;;;7.85;82.23;96620.81;4210099;28;20750;-56
2021/12/28 06:07:52;;;;;;;1.48;1.10;;;;;;;7.81;82.55;96617.03;4208969;28;20717;-55
2021/12/28 06:09:55;;;;;;;2.00;1.20;;;;;;;7.82;82.60;96613.22;4192662;28;20592;-56
2021/12/28 06:11:57;;;;;;;2.38;1.33;;;;;;;7.79;82.43;96608.31;4207796;28;20676;-55
2021/12/28 06:14:00;;;;;;;4.00;1.30;;;;;;;7.80;82.10;96607.22;4198889;28;20654;-56
2021/12/28 06:16:10;;;;;;;2.53;1.30;;;;;;;7.82;82.31;96613.22;4208011;28;20312;-56
2021/12/28 06:18:11;;;;;;;1.98;1.20;;;;;;;7.77;82.73;96610.50;4207952;28;21659;-58
2021/12/28 06:20:13;;;;;;;1.30;1.20;;;;;;;7.74;82.43;96611.88;4204982;28;20277;-57
2021/12/28 06:22:15;;;;;;;2.20;0.88;;;;;;;7.74;82.52;96605.59;4208159;28;20702;-56
2021/12/28 06:24:17;;;;;;;1.50;1.40;;;;;;;7.78;83.00;96606.69;4192335;28;20299;-56
2021/12/28 06:26:18;;;;;;;1.80;1.05;;;;;;;7.79;82.82;96592.81;4208543;28;20190;-56
2021/12/28 06:28:20;;;;;;;1.20;0.90;;;;;;;7.79;82.86;96597.41;4206750;28;20235;-56
2021/12/28 06:30:22;;;;;;;3.05;1.33;;;;;;;7.76;82.22;96587.91;4208613;28;20211;-58
2021/12/28 06:32:24;;;;;;;1.83;1.00;;;;;;;7.79;82.59;96581.09;4207972;28;20245;-57
2021/12/28 06:34:26;;;;;;;2.38;1.33;;;;;;;7.80;82.37;96588.16;4205385;28;20276;-56
2021/12/28 06:36:27;;;;;;;1.35;1.25;;;;;;;7.75;82.08;96577.31;4208273;28;20234;-56
2021/12/28 06:38:30;;;;;;;1.85;1.00;;;;;;;7.83;82.79;96587.63;4211880;28;20226;-55
2021/12/28 06:40:32;;;;;;;3.15;1.08;;;;;;;7.75;82.87;96580.03;4210869;28;20207;-56
2021/12/28 06:42:34;;;;;;;1.48;1.00;;;;;;;7.73;82.56;96583.03;4207579;28;20203;-55
2021/12/28 06:44:35;;;;;;;0.98;0.90;;;;;;;7.79;82.37;96581.91;4207154;28;20210;-56
2021/12/28 06:46:37;;;;;;;1.73;1.00;;;;;;;7.83;82.80;96579.44;4209590;28;20199;-57
2021/12/28 06:48:39;;;;;;;3.38;1.05;;;;;;;7.86;82.23;96587.88;4209762;28;20326;-55
2021/12/28 06:50:41;;;;;;;1.35;1.00;;;;;;;7.87;82.68;96589.50;4191701;28;20243;-57
2021/12/28 06:52:43;;;;;;;1.38;1.00;;;;;;;7.96;82.77;96584.28;4211923;28;20230;-55
2021/12/28 06:54:45;;;;;;;1.40;1.17;;;;;;;7.90;82.40;96577.22;4209047;28;20203;-55
2021/12/28 06:56:47;;;;;;;1.08;0.95;;;;;;;7.90;82.48;96577.22;4209380;28;20579;-56
2021/12/28 06:58:49;;;;;;;1.20;1.10;;;;;;;7.95;82.46;96586.19;4210455;28;20203;-57
2021/12/28 07:00:50;;;;;;;1.13;1.10;;;;;;;7.94;82.93;96583.72;4208804;28;20199;-58
2021/12/28 07:02:53;;;;;;;1.10;1.02;;;;;;;7.99;83.00;96580.97;4207752;28;20199;-57
2021/12/28 07:04:55;;;;;;;1.13;0.98;;;;;;;8.04;82.38;96583.69;4209759;28;20266;-57
2021/12/28 07:06:57;;;;;;;1.33;1.08;;;;;;;8.09;82.49;96573.56;4210521;28;20230;-56
2021/12/28 07:08:59;;;;;;;1.05;1.05;;;;;;;8.13;82.92;96577.38;4212754;28;20206;-58
2021/12/28 07:11:01;;;;;;;1.65;1.05;;;;;;;8.10;82.73;96577.91;4208744;28;20231;-58
2021/12/28 07:13:04;;;;;;;1.42;1.33;;;;;;;8.16;82.66;96584.16;4209343;28;20214;-56
2021/12/28 07:15:07;;;;;;;0.93;0.93;;;;;;;8.20;83.07;96585.25;4222900;28;20611;-58
2021/12/28 07:17:08;;;;;;;0.77;0.77;;;;;;;8.12;82.97;96585.81;4211164;28;20272;-55
2021/12/28 07:19:11;;;;;;;1.25;1.17;;;;;;;8.18;82.60;96584.69;4223855;28;20239;-55
2021/12/28 07:21:12;;;;;;;2.30;1.02;;;;;;;8.16;82.47;96589.63;4210607;28;20745;-56
2021/12/28 07:23:15;;;;;;;0.77;0.77;;;;;;;8.21;83.21;96584.97;4214056;28;20207;-56
2021/12/28 07:25:17;;;;;;;1.42;1.00;;;;;;;8.23;82.42;96587.41;4210504;28;20567;-55
2021/12/28 07:27:18;;;;;;;1.27;1.00;;;;;;;8.24;83.02;96589.03;4211970;28;20218;-55
2021/12/28 07:29:20;;;;;;;1.50;1.13;;;;;;;8.30;82.33;96593.38;4212064;28;20236;-55
2021/12/28 07:31:22;;;;;;;0.82;0.82;;;;;;;8.30;83.31;96593.38;4211567;28;20202;-55
2021/12/28 07:33:24;;;;;;;1.55;1.25;;;;;;;8.39;82.64;96597.09;4212100;28;20284;-57
2021/12/28 07:35:26;;;;;;;0.80;0.80;;;;;;;8.37;82.29;96599.31;4210198;28;20684;-56
2021/12/28 07:37:27;;;;;;;0.85;0.85;;;;;;;8.41;82.68;96606.63;4210914;28;20254;-55
2021/12/28 07:39:29;;;;;;;0.90;0.90;;;;;;;8.34;82.91;96614.31;4211959;28;20591;-56
2021/12/28 07:41:31;;;;;;;1.25;0.98;;;;;;;8.36;82.76;96609.38;4208964;28;20652;-57
2021/12/28 07:43:32;;;;;;;1.13;1.02;;;;;;;8.31;83.08;96616.78;4207723;28;20234;-56
2021/12/28 07:45:34;;;;;;;0.80;0.80;;;;;;;8.42;83.03;96618.34;4192230;28;20208;-56
2021/12/28 07:47:37;;;;;;;0.80;0.80;;;;;;;8.44;82.91;96607.97;4208197;28;20222;-56
2021/12/28 07:49:38;;;;;;;1.08;0.80;;;;;;;8.47;82.54;96618.31;4209840;28;20692;-56
2021/12/28 07:51:40;;;;;;;1.23;1.13;;;;;;;8.56;82.74;96619.34;4207786;28;20210;-56
2021/12/28 07:53:42;;;;;;;0.98;0.80;;;;;;;8.61;82.64;96622.03;4208859;28;20241;-56
2021/12/28 07:55:43;;;;;;;0.90;0.90;;;;;;;8.62;82.64;96626.41;4210815;28;20210;-57
2021/12/28 07:57:48;;;;;;;1.95;0.60;;;;;;;8.61;82.64;96622.03;4211099;28;20708;-58
2021/12/28 07:59:50;;;;;;;0.60;0.60;;;;;;;8.61;82.70;96625.56;4212852;28;20210;-58
2021/12/28 08:01:51;;;;;;;1.30;0.70;;;;;;;8.58;83.13;96628.03;4213437;28;20245;-58
2021/12/28 08:03:54;;;;;;;1.60;0.90;;;;;;;8.57;82.86;96627.25;4212764;28;20285;-55
2021/12/28 08:05:55;;;;;;;0.80;0.80;;;;;;;8.64;82.66;96632.38;4189223;28;20281;-57
2021/12/28 08:07:57;;;;;;;0.68;0.68;;;;;;;8.65;83.05;96631.25;4211319;28;20222;-56
2021/12/28 08:09:59;;;;;;;1.00;1.00;;;;;;;8.65;83.20;96637.53;4209130;28;20226;-56
2021/12/28 08:12:01;;;;;;;0.82;0.80;;;;;;;8.63;83.12;96641.66;4213268;28;20310;-57
2021/12/28 08:14:04;;;;;;;0.60;0.60;;;;;;;8.69;82.94;96644.03;4211012;28;20206;-55
2021/12/28 08:16:06;;;;;;;0.85;0.85;;;;;;;8.80;82.58;96648.31;4203187;28;20681;-55
2021/12/28 08:18:09;;;;;;;0.65;0.65;;;;;;;8.74;82.85;96648.66;4211562;28;20250;-57
2021/12/28 08:20:16;;;;;;;1.30;0.95;;;;;;;8.85;82.70;96651.03;4208806;28;20637;-57
2021/12/28 08:22:18;;;;;;;1.00;0.90;;;;;;;8.89;82.63;96659.44;4209140;28;20239;-55
2021/12/28 08:24:19;;;;;;;0.80;0.80;;;;;;;8.87;83.08;96659.72;4206979;28;20234;-55
2021/12/28 08:26:22;;;;;;;1.13;0.98;;;;;;;8.88;83.16;96660.56;4191348;28;20218;-55
2021/12/28 08:28:25;;;;;;;0.95;0.95;;;;;;;8.90;83.24;96663.81;4207396;28;20245;-56
2021/12/28 08:30:26;;;;;;;0.70;0.70;;;;;;;8.92;83.46;96672.50;4209462;28;20210;-56
2021/12/28 08:32:31;;;;;;;0.90;0.90;;;;;;;8.86;83.10;96663.56;4208280;28;20304;-55
2021/12/28 08:34:32;;;;;;;1.02;0.95;;;;;;;8.96;83.27;96668.13;4206731;28;20227;-58
2021/12/28 08:36:34;;;;;;;0.80;0.80;;;;;;;8.95;83.05;96666.50;4208447;28;20258;-57
2021/12/28 08:38:38;;;;;;;2.97;1.00;;;;;;;9.01;83.36;96668.09;4204595;28;20948;-57
2021/12/28 08:40:41;;;;;;;0.80;0.80;;;;;;;9.03;83.38;96674.06;4206435;28;20206;-57
2021/12/28 08:42:43;;;;;;;1.95;0.70;;;;;;;9.12;83.19;96678.63;4205594;28;20210;-56
2021/12/28 08:44:45;;;;;;;1.00;1.00;;;;;;;9.12;82.79;96683.25;4203400;28;20206;-57
2021/12/28 08:46:46;;;;;;;1.05;0.70;;;;;;;9.16;83.00;96687.03;4206881;28;20202;-56
2021/12/28 08:48:51;;;;;;;0.82;0.82;;;;;;;9.12;83.28;96684.06;4205867;28;20234;-57
2021/12/28 08:50:53;;;;;;;0.70;0.70;;;;;;;9.16;83.10;96681.59;4209082;28;20213;-58
2021/12/28 08:52:54;;;;;;;1.85;0.80;;;;;;;9.19;82.79;96683.72;4204733;28;20272;-57
2021/12/28 08:54:56;;;;;;;0.90;0.90;;;;;;;9.22;82.55;96689.44;4208217;28;20203;-56
2021/12/28 08:56:58;;;;;;;1.25;1.10;;;;;;;9.23;82.68;96685.59;4207870;28;20237;-56
2021/12/28 08:59:00;;;;;;;1.35;1.13;;;;;;;9.21;82.72;96684.28;4210985;28;20252;-54
2021/12/28 09:01:03;;;;;;;1.20;0.90;;;;;;;9.26;82.62;96695.13;4208395;28;20203;-54
2021/12/28 09:03:05;;;;;;;1.45;0.80;;;;;;;9.31;82.06;96700.56;4208584;28;20221;-56
2021/12/28 09:05:08;;;;;;;1.63;0.90;;;;;;;9.35;82.45;96709.81;4205646;28;20303;-56
2021/12/28 09:07:10;;;;;;;1.10;1.00;;;;;;;9.37;82.22;96718.53;4206340;28;20867;-56
2021/12/28 09:09:12;;;;;;;0.90;0.75;;;;;;;9.39;82.06;96711.69;4207910;28;20199;-54
2021/12/28 09:11:13;;;;;;;0.90;0.90;;;;;;;9.36;82.09;96714.16;4206403;28;21170;-57
2021/12/28 09:13:16;;;;;;;1.45;1.10;;;;;;;9.42;82.50;96715.75;4209471;28;20217;-56
2021/12/28 09:15:18;;;;;;;1.60;1.50;;;;;;;9.44;82.56;96721.72;4207883;28;20645;-57
2021/12/28 09:17:19;;;;;;;1.10;1.00;;;;;;;9.40;82.27;96723.38;4204036;28;20250;-52
2021/12/28 09:19:25;;;;;;;1.58;1.48;;;;;;;9.47;82.60;96727.44;4206924;28;20301;-52
2021/12/28 09:21:26;;;;;;;1.95;1.63;;;;;;;9.46;82.60;96739.47;4207333;28;20476;-54
2021/12/28 09:23:30;;;;;;;1.52;1.42;;;;;;;9.47;82.43;96734.78;4190055;28;20716;-52
2021/12/28 09:25:51;;;;;;;1.15;1.13;;;;;;;9.56;81.86;96733.09;4208044;28;20299;-52
2021/12/28 09:27:54;;;;;;;2.13;1.92;;;;;;;9.56;81.85;96744.00;4207961;28;20242;-53
2021/12/28 09:29:56;;;;;;;1.30;1.20;;;;;;;9.50;82.45;96745.16;4202371;28;20304;-52
2021/12/28 09:31:59;;;;;;;1.58;1.48;;;;;;;9.55;81.84;96751.38;4206498;28;20948;-53
2021/12/28 09:34:01;;;;;;;1.33;1.23;;;;;;;9.49;82.24;96743.53;4208896;28;20210;-53
2021/12/28 09:36:23;;;;;;;3.25;2.15;;;;;;;9.49;82.07;96759.91;4204178;28;20207;-54
2021/12/28 09:38:27;;;;;;;1.17;1.13;;;;;;;9.54;82.09;96762.59;4206640;28;20242;-52
2021/12/28 09:40:31;;;;;;;1.10;1.10;;;;;;;9.55;82.36;96750.56;4205305;28;20624;-54
2021/12/28 09:42:34;;;;;;;1.50;1.40;;;;;;;9.54;82.64;96762.59;4205879;28;20256;-54
2021/12/28 09:44:36;;;;;;;1.30;1.20;;;;;;;9.59;82.29;96757.06;4205734;28;20198;-55